sensor_id;sensor_type;location;lat;lon;timestamp;pressure;altitude;pressure_sealevel;temperature;humidity
54194;BME280;40102;50.906;6.972;2023-10-08T00:01:19;101634.31;;;19.71;61.44
54194;BME280;40102;50.906;6.972;2023-10-08T00:03:45;101642.69;;;19.68;61.49
54194;BME280;40102;50.906;6.972;2023-10-08T00:06:15;101640.34;;;19.63;61.54
54194;BME280;40102;50.906;6.972;2023-10-08T00:08:41;101642.06;;;19.64;61.50
54194;BME280;40102;50.906;6.972;2023-10-08T00:11:06;101637.88;;;19.60;61.28
54194;BME280;40102;50.906;6.972;2023-10-08T00:13:32;101648.13;;;19.68;61.20
54194;BME280;40102;50.906;6.972;2023-10-08T00:16:08;101635.16;;;19.60;61.01
54194;BME280;40102;50.906;6.972;2023-10-08T00:18:40;101640.59;;;19.60;61.39
54194;BME280;40102;50.906;6.972;2023-10-08T00:21:07;101642.56;;;19.58;61.48
54194;BME280;40102;50.906;6.972;2023-10-08T00:23:36;101641.56;;;19.59;61.35
54194;BME280;40102;50.906;6.972;2023-10-08T00:26:07;101654.91;;;19.62;61.49
54194;BME280;40102;50.906;6.972;2023-10-08T00:28:33;101642.66;;;19.57;61.24
54194;BME280;40102;50.906;6.972;2023-10-08T00:30:58;101633.78;;;19.55;61.65
54194;BME280;40102;50.906;6.972;2023-10-08T00:33:31;101625.00;;;19.51;61.85
54194;BME280;40102;50.906;6.972;2023-10-08T00:35:57;101636.22;;;19.47;61.81
54194;BME280;40102;50.906;6.972;2023-10-08T00:38:22;101642.25;;;19.50;61.89
54194;BME280;40102;50.906;6.972;2023-10-08T00:40:50;101637.06;;;19.47;61.75
54194;BME280;40102;50.906;6.972;2023-10-08T00:43:33;101651.38;;;19.49;62.00
54194;BME280;40102;50.906;6.972;2023-10-08T00:46:03;101642.84;;;19.42;61.99
54194;BME280;40102;50.906;6.972;2023-10-08T00:48:29;101666.78;;;19.49;62.11
54194;BME280;40102;50.906;6.972;2023-10-08T00:51:04;101648.41;;;19.41;62.46
54194;BME280;40102;50.906;6.972;2023-10-08T00:54:02;101656.44;;;19.42;62.42
54194;BME280;40102;50.906;6.972;2023-10-08T00:56:34;101648.88;;;19.35;62.57
54194;BME280;40102;50.906;6.972;2023-10-08T00:59:18;101644.31;;;19.35;62.53
54194;BME280;40102;50.906;6.972;2023-10-08T01:01:47;101636.53;;;19.31;62.57
54194;BME280;40102;50.906;6.972;2023-10-08T01:04:24;101636.53;;;19.31;62.34
54194;BME280;40102;50.906;6.972;2023-10-08T01:06:57;101640.88;;;19.33;62.27
54194;BME280;40102;50.906;6.972;2023-10-08T01:09:38;101630.13;;;19.32;62.61
54194;BME280;40102;50.906;6.972;2023-10-08T01:12:18;101639.75;;;19.36;62.39
54194;BME280;40102;50.906;6.972;2023-10-08T01:14:51;101632.47;;;19.25;62.72
54194;BME280;40102;50.906;6.972;2023-10-08T01:17:23;101648.13;;;19.33;62.35
54194;BME280;40102;50.906;6.972;2023-10-08T01:19:56;101642.94;;;19.30;62.43
54194;BME280;40102;50.906;6.972;2023-10-08T01:22:30;101633.31;;;19.26;62.41
54194;BME280;40102;50.906;6.972;2023-10-08T01:24:55;101632.69;;;19.22;62.56
54194;BME280;40102;50.906;6.972;2023-10-08T01:27:21;101637.03;;;19.25;62.47
54194;BME280;40102;50.906;6.972;2023-10-08T01:29:47;101632.81;;;19.21;62.62
54194;BME280;40102;50.906;6.972;2023-10-08T01:32:15;101632.81;;;19.21;62.52
54194;BME280;40102;50.906;6.972;2023-10-08T01:34:42;101629.00;;;19.23;62.29
54194;BME280;40102;50.906;6.972;2023-10-08T01:37:12;101624.81;;;19.19;62.28
54194;BME280;40102;50.906;6.972;2023-10-08T01:39:38;101617.66;;;19.18;62.10
54194;BME280;40102;50.906;6.972;2023-10-08T01:42:08;101634.44;;;19.23;62.12
54194;BME280;40102;50.906;6.972;2023-10-08T01:44:40;101627.41;;;19.21;62.52
54194;BME280;40102;50.906;6.972;2023-10-08T01:47:06;101603.47;;;19.15;62.26
54194;BME280;40102;50.906;6.972;2023-10-08T01:49:31;101616.03;;;19.16;62.26
54194;BME280;40102;50.906;6.972;2023-10-08T01:51:59;101637.63;;;19.17;62.42
54194;BME280;40102;50.906;6.972;2023-10-08T01:54:24;101636.47;;;19.08;62.37
54194;BME280;40102;50.906;6.972;2023-10-08T01:56:51;101640.16;;;19.07;62.42
54194;BME280;40102;50.906;6.972;2023-10-08T01:59:17;101650.44;;;19.15;62.18
54194;BME280;40102;50.906;6.972;2023-10-08T02:01:43;101630.19;;;19.08;62.47
54194;BME280;40102;50.906;6.972;2023-10-08T02:04:10;101637.34;;;19.09;62.30
54194;BME280;40102;50.906;6.972;2023-10-08T02:06:38;101652.63;;;19.10;62.26
54194;BME280;40102;50.906;6.972;2023-10-08T02:09:05;101647.44;;;19.07;62.26
54194;BME280;40102;50.906;6.972;2023-10-08T02:11:43;101649.91;;;19.10;61.80
54194;BME280;40102;50.906;6.972;2023-10-08T02:14:08;101642.88;;;19.07;62.40
54194;BME280;40102;50.906;6.972;2023-10-08T02:16:34;101651.03;;;19.07;62.52
54194;BME280;40102;50.906;6.972;2023-10-08T02:18:59;101624.63;;;18.98;62.32
54194;BME280;40102;50.906;6.972;2023-10-08T02:21:25;101620.53;;;18.93;61.48
54194;BME280;40102;50.906;6.972;2023-10-08T02:23:51;101634.94;;;18.93;61.61
54194;BME280;40102;50.906;6.972;2023-10-08T02:26:17;101630.91;;;18.99;61.85
54194;BME280;40102;50.906;6.972;2023-10-08T02:28:44;101627.91;;;18.91;61.59
54194;BME280;40102;50.906;6.972;2023-10-08T02:31:09;101646.66;;;18.94;61.76
54194;BME280;40102;50.906;6.972;2023-10-08T02:33:35;101635.53;;;18.86;62.01
54194;BME280;40102;50.906;6.972;2023-10-08T02:36:02;101642.56;;;18.88;61.68
54194;BME280;40102;50.906;6.972;2023-10-08T02:38:29;101645.28;;;18.88;61.26
54194;BME280;40102;50.906;6.972;2023-10-08T02:40:55;101637.25;;;18.87;61.21
54194;BME280;40102;50.906;6.972;2023-10-08T02:43:22;101656.75;;;18.92;61.05
54194;BME280;40102;50.906;6.972;2023-10-08T02:45:48;101643.25;;;18.79;60.84
54194;BME280;40102;50.906;6.972;2023-10-08T02:48:15;101647.34;;;18.85;61.33
54194;BME280;40102;50.906;6.972;2023-10-08T02:50:44;101636.34;;;18.75;61.27
54194;BME280;40102;50.906;6.972;2023-10-08T02:53:11;101647.19;;;18.75;61.35
54194;BME280;40102;50.906;6.972;2023-10-08T02:55:37;101650.41;;;18.80;61.47
54194;BME280;40102;50.906;6.972;2023-10-08T02:58:07;101642.16;;;18.82;61.60
54194;BME280;40102;50.906;6.972;2023-10-08T03:00:38;101653.97;;;18.81;61.03
54194;BME280;40102;50.906;6.972;2023-10-08T03:03:06;101633.00;;;18.71;60.68
54194;BME280;40102;50.906;6.972;2023-10-08T03:05:47;101635.59;;;18.73;60.67
54194;BME280;40102;50.906;6.972;2023-10-08T03:08:16;101647.97;;;18.64;61.01
54194;BME280;40102;50.906;6.972;2023-10-08T03:10:49;101621.75;;;18.65;61.32
54194;BME280;40102;50.906;6.972;2023-10-08T03:13:16;101635.59;;;18.73;61.06
54194;BME280;40102;50.906;6.972;2023-10-08T03:15:42;101644.06;;;18.68;60.98
54194;BME280;40102;50.906;6.972;2023-10-08T03:18:30;101649.06;;;18.62;61.06
54194;BME280;40102;50.906;6.972;2023-10-08T03:21:04;101652.44;;;18.65;61.38
54194;BME280;40102;50.906;6.972;2023-10-08T03:23:31;101660.56;;;18.65;61.41
54194;BME280;40102;50.906;6.972;2023-10-08T03:26:03;101654.28;;;18.65;61.64
54194;BME280;40102;50.906;6.972;2023-10-08T03:28:58;101658.25;;;18.59;61.66
54194;BME280;40102;50.906;6.972;2023-10-08T03:31:24;101661.31;;;18.55;61.42
54194;BME280;40102;50.906;6.972;2023-10-08T03:34:19;101665.88;;;18.54;61.81
54194;BME280;40102;50.906;6.972;2023-10-08T03:36:46;101672.03;;;18.56;61.72
54194;BME280;40102;50.906;6.972;2023-10-08T03:39:12;101674.63;;;18.58;62.05
54194;BME280;40102;50.906;6.972;2023-10-08T03:41:41;101671.19;;;18.56;61.98
54194;BME280;40102;50.906;6.972;2023-10-08T03:44:07;101682.56;;;18.61;61.79
54194;BME280;40102;50.906;6.972;2023-10-08T03:46:40;101666.75;;;18.55;61.53
54194;BME280;40102;50.906;6.972;2023-10-08T03:49:17;101666.84;;;18.53;61.75
54194;BME280;40102;50.906;6.972;2023-10-08T03:51:46;101674.13;;;18.53;61.86
54194;BME280;40102;50.906;6.972;2023-10-08T03:54:11;101676.38;;;18.59;61.92
54194;BME280;40102;50.906;6.972;2023-10-08T03:56:40;101669.56;;;18.53;61.67
54194;BME280;40102;50.906;6.972;2023-10-08T03:59:14;101662.53;;;18.51;61.58
54194;BME280;40102;50.906;6.972;2023-10-08T04:01:46;101668.59;;;18.54;61.72
54194;BME280;40102;50.906;6.972;2023-10-08T04:04:14;101670.66;;;18.51;61.69
54194;BME280;40102;50.906;6.972;2023-10-08T04:06:40;101685.94;;;18.52;61.84
54194;BME280;40102;50.906;6.972;2023-10-08T04:09:14;101679.00;;;18.48;61.55
54194;BME280;40102;50.906;6.972;2023-10-08T04:11:45;101669.91;;;18.49;61.55
54194;BME280;40102;50.906;6.972;2023-10-08T04:14:20;101657.34;;;18.48;61.80
54194;BME280;40102;50.906;6.972;2023-10-08T04:16:46;101653.75;;;18.47;61.59
54194;BME280;40102;50.906;6.972;2023-10-08T04:19:12;101671.63;;;18.50;61.60
54194;BME280;40102;50.906;6.972;2023-10-08T04:21:38;101670.34;;;18.42;61.32
54194;BME280;40102;50.906;6.972;2023-10-08T04:24:08;101657.16;;;18.38;61.79
54194;BME280;40102;50.906;6.972;2023-10-08T04:26:34;101667.75;;;18.41;61.92
54194;BME280;40102;50.906;6.972;2023-10-08T04:29:01;101664.06;;;18.42;61.64
54194;BME280;40102;50.906;6.972;2023-10-08T04:31:35;101667.88;;;18.39;61.76
54194;BME280;40102;50.906;6.972;2023-10-08T04:34:07;101655.53;;;18.35;61.85
54194;BME280;40102;50.906;6.972;2023-10-08T04:36:40;101677.94;;;18.37;61.63
54194;BME280;40102;50.906;6.972;2023-10-08T04:39:06;101681.41;;;18.39;62.01
54194;BME280;40102;50.906;6.972;2023-10-08T04:41:40;101661.91;;;18.34;61.89
54194;BME280;40102;50.906;6.972;2023-10-08T04:44:11;101663.44;;;18.38;61.58
54194;BME280;40102;50.906;6.972;2023-10-08T04:46:44;101654.03;;;18.31;61.49
54194;BME280;40102;50.906;6.972;2023-10-08T04:49:15;101657.06;;;18.27;61.76
54194;BME280;40102;50.906;6.972;2023-10-08T04:52:05;101656.97;;;18.28;62.25
54194;BME280;40102;50.906;6.972;2023-10-08T04:54:38;101655.34;;;18.26;62.05
54194;BME280;40102;50.906;6.972;2023-10-08T04:57:06;101694.75;;;18.30;62.39
54194;BME280;40102;50.906;6.972;2023-10-08T04:59:32;101693.47;;;18.23;62.46
54194;BME280;40102;50.906;6.972;2023-10-08T05:02:05;101697.03;;;18.23;62.97
54194;BME280;40102;50.906;6.972;2023-10-08T05:04:52;101706.03;;;18.24;62.74
54194;BME280;40102;50.906;6.972;2023-10-08T05:07:21;101717.72;;;18.24;62.64
54194;BME280;40102;50.906;6.972;2023-10-08T05:10:06;101729.00;;;18.31;62.40
54194;BME280;40102;50.906;6.972;2023-10-08T05:12:31;101714.47;;;18.32;62.40
54194;BME280;40102;50.906;6.972;2023-10-08T05:15:02;101692.91;;;18.30;62.14
54194;BME280;40102;50.906;6.972;2023-10-08T05:17:41;101682.19;;;18.29;61.83
54194;BME280;40102;50.906;6.972;2023-10-08T05:20:29;101700.06;;;18.31;62.12
54194;BME280;40102;50.906;6.972;2023-10-08T05:22:57;101699.09;;;18.32;61.77
54194;BME280;40102;50.906;6.972;2023-10-08T05:25:42;101690.97;;;18.32;62.26
54194;BME280;40102;50.906;6.972;2023-10-08T05:28:23;101668.25;;;18.22;61.99
54194;BME280;40102;50.906;6.972;2023-10-08T05:30:52;101694.00;;;18.28;62.15
54194;BME280;40102;50.906;6.972;2023-10-08T05:33:37;101709.69;;;18.35;62.15
54194;BME280;40102;50.906;6.972;2023-10-08T05:36:21;101694.88;;;18.28;62.09
54194;BME280;40102;50.906;6.972;2023-10-08T05:39:18;101713.72;;;18.30;62.12
54194;BME280;40102;50.906;6.972;2023-10-08T05:41:53;101716.31;;;18.31;62.32
54194;BME280;40102;50.906;6.972;2023-10-08T05:44:43;101735.69;;;18.38;62.44
54194;BME280;40102;50.906;6.972;2023-10-08T05:47:32;101736.56;;;18.38;62.59
54194;BME280;40102;50.906;6.972;2023-10-08T05:49:58;101718.28;;;18.29;62.04
54194;BME280;40102;50.906;6.972;2023-10-08T05:52:45;101726.63;;;18.26;62.48
54194;BME280;40102;50.906;6.972;2023-10-08T05:55:24;101727.69;;;18.24;62.50
54194;BME280;40102;50.906;6.972;2023-10-08T05:58:03;101735.41;;;18.17;63.26
54194;BME280;40102;50.906;6.972;2023-10-08T06:00:43;101775.56;;;18.23;63.63
54194;BME280;40102;50.906;6.972;2023-10-08T06:03:31;101768.53;;;18.21;63.55
54194;BME280;40102;50.906;6.972;2023-10-08T06:06:23;101759.97;;;18.14;63.93
54194;BME280;40102;50.906;6.972;2023-10-08T06:08:50;101758.47;;;18.10;64.15
54194;BME280;40102;50.906;6.972;2023-10-08T06:11:35;101780.56;;;18.17;64.43
54194;BME280;40102;50.906;6.972;2023-10-08T06:14:21;101775.69;;;18.09;64.68
54194;BME280;40102;50.906;6.972;2023-10-08T06:17:18;101776.22;;;18.14;64.84
54194;BME280;40102;50.906;6.972;2023-10-08T06:20:02;101770.16;;;18.10;64.63
54194;BME280;40102;50.906;6.972;2023-10-08T06:22:35;101770.16;;;18.10;64.78
54194;BME280;40102;50.906;6.972;2023-10-08T06:25:02;101767.56;;;18.09;65.06
54194;BME280;40102;50.906;6.972;2023-10-08T06:27:41;101773.75;;;18.11;64.91
54194;BME280;40102;50.906;6.972;2023-10-08T06:30:07;101766.47;;;18.11;64.96
54194;BME280;40102;50.906;6.972;2023-10-08T06:32:42;101761.19;;;18.10;65.09
54194;BME280;40102;50.906;6.972;2023-10-08T06:35:09;101751.22;;;18.10;65.00
54194;BME280;40102;50.906;6.972;2023-10-08T06:37:43;101733.13;;;18.11;64.98
54194;BME280;40102;50.906;6.972;2023-10-08T06:40:08;101735.63;;;18.14;64.70
54194;BME280;40102;50.906;6.972;2023-10-08T06:42:54;101738.75;;;18.08;64.60
54194;BME280;40102;50.906;6.972;2023-10-08T06:45:22;101743.41;;;18.06;64.29
54194;BME280;40102;50.906;6.972;2023-10-08T06:47:47;101755.97;;;18.07;64.65
54194;BME280;40102;50.906;6.972;2023-10-08T06:50:15;101759.88;;;18.03;64.74
54194;BME280;40102;50.906;6.972;2023-10-08T06:52:40;101765.41;;;18.01;64.44
54194;BME280;40102;50.906;6.972;2023-10-08T06:55:09;101765.41;;;18.01;64.79
54194;BME280;40102;50.906;6.972;2023-10-08T06:57:37;101759.78;;;18.04;64.48
54194;BME280;40102;50.906;6.972;2023-10-08T07:00:04;101774.16;;;18.05;64.31
54194;BME280;40102;50.906;6.972;2023-10-08T07:02:37;101769.50;;;18.07;64.47
54194;BME280;40102;50.906;6.972;2023-10-08T07:05:05;101782.63;;;18.13;64.40
54194;BME280;40102;50.906;6.972;2023-10-08T07:07:34;101784.56;;;18.11;64.54
54194;BME280;40102;50.906;6.972;2023-10-08T07:10:05;101793.00;;;18.19;64.57
54194;BME280;40102;50.906;6.972;2023-10-08T07:12:30;101784.88;;;18.19;64.46
54194;BME280;40102;50.906;6.972;2023-10-08T07:15:00;101755.44;;;18.15;64.68
54194;BME280;40102;50.906;6.972;2023-10-08T07:17:26;101755.53;;;18.13;64.40
54194;BME280;40102;50.906;6.972;2023-10-08T07:20:02;101776.66;;;18.21;64.78
54194;BME280;40102;50.906;6.972;2023-10-08T07:22:38;101757.72;;;18.08;64.81
54194;BME280;40102;50.906;6.972;2023-10-08T07:25:04;101772.44;;;18.17;65.05
54194;BME280;40102;50.906;6.972;2023-10-08T07:27:33;101748.72;;;18.07;65.08
54194;BME280;40102;50.906;6.972;2023-10-08T07:30:03;101756.09;;;18.05;65.09
54194;BME280;40102;50.906;6.972;2023-10-08T07:32:35;101754.47;;;18.03;65.57
54194;BME280;40102;50.906;6.972;2023-10-08T07:35:06;101761.59;;;18.04;65.58
54194;BME280;40102;50.906;6.972;2023-10-08T07:37:51;101761.81;;;18.01;65.60
54194;BME280;40102;50.906;6.972;2023-10-08T07:40:19;101766.59;;;17.97;66.20
54194;BME280;40102;50.906;6.972;2023-10-08T07:42:46;101767.34;;;17.99;66.25
54194;BME280;40102;50.906;6.972;2023-10-08T07:45:17;101769.84;;;18.02;66.12
54194;BME280;40102;50.906;6.972;2023-10-08T07:47:43;101792.91;;;18.08;66.14
54194;BME280;40102;50.906;6.972;2023-10-08T07:50:08;101797.34;;;18.09;66.04
54194;BME280;40102;50.906;6.972;2023-10-08T07:52:38;101804.06;;;18.16;66.14
54194;BME280;40102;50.906;6.972;2023-10-08T07:55:03;101799.72;;;18.13;66.13
54194;BME280;40102;50.906;6.972;2023-10-08T07:57:32;101796.91;;;18.15;66.15
54194;BME280;40102;50.906;6.972;2023-10-08T07:59:58;101811.09;;;18.19;66.13
54194;BME280;40102;50.906;6.972;2023-10-08T08:02:43;101815.44;;;18.21;66.17
54194;BME280;40102;50.906;6.972;2023-10-08T08:05:09;101813.59;;;18.22;66.29
54194;BME280;40102;50.906;6.972;2023-10-08T08:07:34;101807.41;;;18.20;66.21
54194;BME280;40102;50.906;6.972;2023-10-08T08:10:00;101819.66;;;18.25;66.24
54194;BME280;40102;50.906;6.972;2023-10-08T08:12:27;101811.53;;;18.25;65.74
54194;BME280;40102;50.906;6.972;2023-10-08T08:14:58;101809.69;;;18.26;65.93
54194;BME280;40102;50.906;6.972;2023-10-08T08:17:24;101820.19;;;18.30;66.05
54194;BME280;40102;50.906;6.972;2023-10-08T08:19:50;101821.81;;;18.33;66.20
54194;BME280;40102;50.906;6.972;2023-10-08T08:22:18;101820.53;;;18.38;66.54
54194;BME280;40102;50.906;6.972;2023-10-08T08:24:53;101818.16;;;18.34;66.52
54194;BME280;40102;50.906;6.972;2023-10-08T08:27:20;101826.91;;;18.37;66.66
54194;BME280;40102;50.906;6.972;2023-10-08T08:29:57;101830.28;;;18.41;66.58
54194;BME280;40102;50.906;6.972;2023-10-08T08:32:35;101827.78;;;18.38;66.67
54194;BME280;40102;50.906;6.972;2023-10-08T08:35:00;101828.00;;;18.35;66.91
54194;BME280;40102;50.906;6.972;2023-10-08T08:37:26;101821.94;;;18.31;66.65
54194;BME280;40102;50.906;6.972;2023-10-08T08:39:57;101825.06;;;18.38;66.75
54194;BME280;40102;50.906;6.972;2023-10-08T08:42:22;101826.69;;;18.40;67.10
54194;BME280;40102;50.906;6.972;2023-10-08T08:44:50;101820.00;;;18.33;66.97
54194;BME280;40102;50.906;6.972;2023-10-08T08:47:17;101827.13;;;18.34;67.29
54194;BME280;40102;50.906;6.972;2023-10-08T08:49:44;101838.50;;;18.39;67.36
54194;BME280;40102;50.906;6.972;2023-10-08T08:52:13;101828.75;;;18.37;67.21
54194;BME280;40102;50.906;6.972;2023-10-08T08:54:42;101826.28;;;18.34;67.19
54194;BME280;40102;50.906;6.972;2023-10-08T08:57:10;101843.16;;;18.37;67.30
54194;BME280;40102;50.906;6.972;2023-10-08T08:59:59;101844.56;;;18.43;67.39
54194;BME280;40102;50.906;6.972;2023-10-08T09:02:24;101836.13;;;18.35;67.62
54194;BME280;40102;50.906;6.972;2023-10-08T09:04:50;101855.53;;;18.41;67.72
54194;BME280;40102;50.906;6.972;2023-10-08T09:07:23;101855.63;;;18.40;67.35
54194;BME280;40102;50.906;6.972;2023-10-08T09:09:48;101847.72;;;18.37;68.17
54194;BME280;40102;50.906;6.972;2023-10-08T09:12:16;101840.25;;;18.40;67.94
54194;BME280;40102;50.906;6.972;2023-10-08T09:14:42;101835.91;;;18.38;67.94
54194;BME280;40102;50.906;6.972;2023-10-08T09:17:10;101829.63;;;18.37;67.99
54194;BME280;40102;50.906;6.972;2023-10-08T09:19:36;101840.78;;;18.45;67.73
54194;BME280;40102;50.906;6.972;2023-10-08T09:22:03;101839.91;;;18.45;68.11
54194;BME280;40102;50.906;6.972;2023-10-08T09:24:33;101834.50;;;18.45;67.53
54194;BME280;40102;50.906;6.972;2023-10-08T09:27:05;101835.59;;;18.42;68.12
54194;BME280;40102;50.906;6.972;2023-10-08T09:29:32;101839.16;;;18.43;68.08
54194;BME280;40102;50.906;6.972;2023-10-08T09:31:58;101842.63;;;18.45;68.33
54194;BME280;40102;50.906;6.972;2023-10-08T09:34:28;101845.97;;;18.49;68.43
54194;BME280;40102;50.906;6.972;2023-10-08T09:36:55;101852.16;;;18.51;68.81
54194;BME280;40102;50.906;6.972;2023-10-08T09:39:21;101856.16;;;18.45;69.02
54194;BME280;40102;50.906;6.972;2023-10-08T09:41:53;101854.53;;;18.42;68.78
54194;BME280;40102;50.906;6.972;2023-10-08T09:44:19;101859.31;;;18.39;69.00
54194;BME280;40102;50.906;6.972;2023-10-08T09:46:48;101867.22;;;18.42;68.99
54194;BME280;40102;50.906;6.972;2023-10-08T09:49:19;101862.78;;;18.41;68.88
54194;BME280;40102;50.906;6.972;2023-10-08T09:51:48;101875.47;;;18.53;68.94
54194;BME280;40102;50.906;6.972;2023-10-08T09:54:20;101886.06;;;18.56;69.40
54194;BME280;40102;50.906;6.972;2023-10-08T09:56:47;101879.25;;;18.51;69.39
54194;BME280;40102;50.906;6.972;2023-10-08T09:59:14;101885.31;;;18.54;69.87
54194;BME280;40102;50.906;6.972;2023-10-08T10:01:42;101873.72;;;18.52;70.07
54194;BME280;40102;50.906;6.972;2023-10-08T10:04:09;101886.94;;;18.57;70.00
54194;BME280;40102;50.906;6.972;2023-10-08T10:06:35;101884.69;;;18.63;70.07
54194;BME280;40102;50.906;6.972;2023-10-08T10:09:01;101882.28;;;18.59;70.42
54194;BME280;40102;50.906;6.972;2023-10-08T10:11:28;101880.78;;;18.55;69.87
54194;BME280;40102;50.906;6.972;2023-10-08T10:14:02;101892.84;;;18.63;69.91
54194;BME280;40102;50.906;6.972;2023-10-08T10:16:28;101896.19;;;18.67;70.27
54194;BME280;40102;50.906;6.972;2023-10-08T10:18:57;101902.38;;;18.69;70.08
54194;BME280;40102;50.906;6.972;2023-10-08T10:21:30;101905.06;;;18.69;70.68
54194;BME280;40102;50.906;6.972;2023-10-08T10:23:56;101898.69;;;18.70;70.65
54194;BME280;40102;50.906;6.972;2023-10-08T10:31:50;101898.03;;;18.79;71.13
54194;BME280;40102;50.906;6.972;2023-10-08T10:34:23;101887.63;;;18.73;71.21
54194;BME280;40102;50.906;6.972;2023-10-08T10:36:53;101892.06;;;18.74;71.24
54194;BME280;40102;50.906;6.972;2023-10-08T10:39:27;101898.03;;;18.79;71.41
54194;BME280;40102;50.906;6.972;2023-10-08T10:41:56;101895.53;;;18.76;71.28
54194;BME280;40102;50.906;6.972;2023-10-08T10:44:33;101879.50;;;18.73;71.53
54194;BME280;40102;50.906;6.972;2023-10-08T10:47:02;101897.69;;;18.84;71.59
54194;BME280;40102;50.906;6.972;2023-10-08T10:49:40;101887.19;;;18.79;72.01
54194;BME280;40102;50.906;6.972;2023-10-08T10:52:26;101892.28;;;18.84;71.93
54194;BME280;40102;50.906;6.972;2023-10-08T10:55:04;101886.84;;;18.84;72.01
54194;BME280;40102;50.906;6.972;2023-10-08T10:57:50;101864.41;;;18.82;71.50
54194;BME280;40102;50.906;6.972;2023-10-08T11:00:29;101882.94;;;18.88;71.86
54194;BME280;40102;50.906;6.972;2023-10-08T11:03:01;101881.75;;;18.92;72.20
54194;BME280;40102;50.906;6.972;2023-10-08T11:05:47;101880.84;;;19.04;72.38
54194;BME280;40102;50.906;6.972;2023-10-08T11:08:17;101860.81;;;18.94;72.85
54194;BME280;40102;50.906;6.972;2023-10-08T11:10:44;101869.25;;;19.02;72.74
54194;BME280;40102;50.906;6.972;2023-10-08T11:13:18;101873.13;;;19.11;72.90
54194;BME280;40102;50.906;6.972;2023-10-08T11:15:46;101866.84;;;19.10;73.38
54194;BME280;40102;50.906;6.972;2023-10-08T11:18:17;101882.84;;;19.26;73.83
54194;BME280;40102;50.906;6.972;2023-10-08T11:20:44;101861.38;;;19.23;73.56
54194;BME280;40102;50.906;6.972;2023-10-08T11:23:10;101875.13;;;19.32;72.99
54194;BME280;40102;50.906;6.972;2023-10-08T11:25:59;101878.47;;;19.36;73.15
54194;BME280;40102;50.906;6.972;2023-10-08T11:28:40;101880.84;;;19.40;73.55
54194;BME280;40102;50.906;6.972;2023-10-08T11:31:11;101874.97;;;19.47;73.47
54194;BME280;40102;50.906;6.972;2023-10-08T11:33:44;101875.06;;;19.58;73.16
54194;BME280;40102;50.906;6.972;2023-10-08T11:36:20;101868.78;;;19.57;72.52
54194;BME280;40102;50.906;6.972;2023-10-08T11:38:47;101857.34;;;19.65;72.52
54194;BME280;40102;50.906;6.972;2023-10-08T11:41:17;101866.63;;;19.73;72.19
54194;BME280;40102;50.906;6.972;2023-10-08T11:43:53;101870.38;;;19.84;72.49
54194;BME280;40102;50.906;6.972;2023-10-08T11:46:26;101862.09;;;19.85;73.67
54194;BME280;40102;50.906;6.972;2023-10-08T11:48:54;101860.88;;;19.89;73.91
54194;BME280;40102;50.906;6.972;2023-10-08T11:51:24;101852.16;;;19.97;73.68
54194;BME280;40102;50.906;6.972;2023-10-08T11:53:50;101855.53;;;20.12;72.80
54194;BME280;40102;50.906;6.972;2023-10-08T11:56:17;101855.19;;;20.27;73.09
54194;BME280;40102;50.906;6.972;2023-10-08T11:58:44;101841.16;;;20.45;72.10
54194;BME280;40102;50.906;6.972;2023-10-08T12:01:13;101844.41;;;20.61;72.03
54194;BME280;40102;50.906;6.972;2023-10-08T12:03:44;101847.06;;;20.83;71.16
54194;BME280;40102;50.906;6.972;2023-10-08T12:06:13;101847.56;;;20.99;71.43
54194;BME280;40102;50.906;6.972;2023-10-08T12:08:44;101844.22;;;21.07;70.20
54194;BME280;40102;50.906;6.972;2023-10-08T12:11:12;101835.78;;;21.10;69.22
54194;BME280;40102;50.906;6.972;2023-10-08T12:13:38;101831.72;;;21.05;68.86
54194;BME280;40102;50.906;6.972;2023-10-08T12:16:15;101853.00;;;20.99;68.53
54194;BME280;40102;50.906;6.972;2023-10-08T12:18:48;101840.19;;;20.79;68.94
54194;BME280;40102;50.906;6.972;2023-10-08T12:21:14;101835.38;;;20.72;69.58
54194;BME280;40102;50.906;6.972;2023-10-08T12:23:41;101827.34;;;20.70;69.91
54194;BME280;40102;50.906;6.972;2023-10-08T12:26:15;101820.44;;;20.66;69.71
54194;BME280;40102;50.906;6.972;2023-10-08T12:28:45;101826.34;;;20.60;69.62
54194;BME280;40102;50.906;6.972;2023-10-08T12:31:20;101836.13;;;20.62;69.92
54194;BME280;40102;50.906;6.972;2023-10-08T12:33:50;101812.41;;;20.53;69.93
54194;BME280;40102;50.906;6.972;2023-10-08T12:36:25;101829.06;;;20.49;69.93
54194;BME280;40102;50.906;6.972;2023-10-08T12:38:52;101820.53;;;20.42;70.08
54194;BME280;40102;50.906;6.972;2023-10-08T12:41:24;101822.84;;;20.35;70.63
54194;BME280;40102;50.906;6.972;2023-10-08T12:43:52;101821.72;;;20.27;70.52
54194;BME280;40102;50.906;6.972;2023-10-08T12:46:18;101837.91;;;20.28;70.92
54194;BME280;40102;50.906;6.972;2023-10-08T12:48:47;101843.34;;;20.28;71.14
54194;BME280;40102;50.906;6.972;2023-10-08T12:51:17;101816.03;;;20.19;71.67
54194;BME280;40102;50.906;6.972;2023-10-08T12:53:43;101818.38;;;20.23;71.49
54194;BME280;40102;50.906;6.972;2023-10-08T12:56:16;101802.94;;;20.13;71.83
54194;BME280;40102;50.906;6.972;2023-10-08T12:58:42;101819.63;;;20.19;72.08
54194;BME280;40102;50.906;6.972;2023-10-08T13:01:16;101801.22;;;20.12;72.34
54194;BME280;40102;50.906;6.972;2023-10-08T13:03:45;101806.16;;;20.18;72.04
54194;BME280;40102;50.906;6.972;2023-10-08T13:06:16;101803.56;;;20.16;72.56
54194;BME280;40102;50.906;6.972;2023-10-08T13:08:54;101800.97;;;20.15;72.14
54194;BME280;40102;50.906;6.972;2023-10-08T13:11:20;101795.66;;;20.13;72.70
54194;BME280;40102;50.906;6.972;2023-10-08T13:13:55;101791.31;;;20.11;72.81
54194;BME280;40102;50.906;6.972;2023-10-08T13:16:25;101788.00;;;20.07;74.06